CES519 ZUUU-ZSSS
Flight info
| Callsign | CES519 |
|---|---|
| Flight time | 2h 0m |
| Altitude | 41100 |
| Route | UBRAB B213 ESPEG V154 SNF W269 OLPOV B213 WHA R343 PK |
| Aircraft | A359/H-SDE2E3GHIJ3J4J5LM1ORWXY/LB1D1 |
Departure
| Time | 2026-04-30 07:53 |
|---|---|
| Airport | Chengdu Shuangliu International Airport (ZUUU) |
Arrival
| Time | 2026-04-30 09:54 |
|---|---|
| Airport | Shanghai Hongqiao International Airport (ZSSS) |
| Time | Latitude | Longitude | Altitude | Speed | Heading |
|---|---|---|---|---|---|
| 2026-04-30 07:30 | 30.56951 | 103.94907 | 1653 ft | 0 kts | 80° |
| 2026-04-30 07:44 | 30.56948 | 103.94889 | 1653 ft | 3 kts | 80° |
| 2026-04-30 07:44 | 30.56945 | 103.94868 | 1653 ft | 3 kts | 80° |
| 2026-04-30 07:45 | 30.56942 | 103.94847 | 1653 ft | 3 kts | 80° |
| 2026-04-30 07:45 | 30.56937 | 103.94826 | 1653 ft | 3 kts | 63° |
| 2026-04-30 07:45 | 30.56926 | 103.94808 | 1653 ft | 3 kts | 42° |
| 2026-04-30 07:45 | 30.56911 | 103.94795 | 1653 ft | 3 kts | 22° |
| 2026-04-30 07:46 | 30.56894 | 103.94788 | 1653 ft | 2 kts | 17° |
| 2026-04-30 07:46 | 30.56878 | 103.94782 | 1653 ft | 2 kts | 17° |
| 2026-04-30 07:46 | 30.56862 | 103.94777 | 1653 ft | 2 kts | 17° |
| 2026-04-30 07:46 | 30.56846 | 103.94771 | 1653 ft | 2 kts | 17° |
| 2026-04-30 07:47 | 30.56832 | 103.94766 | 1653 ft | 2 kts | 17° |
| 2026-04-30 07:47 | 30.56817 | 103.94760 | 1653 ft | 2 kts | 17° |
| 2026-04-30 07:47 | 30.56801 | 103.94755 | 1653 ft | 3 kts | 9° |
| 2026-04-30 07:47 | 30.56783 | 103.94754 | 1653 ft | 3 kts | 350° |
| 2026-04-30 07:48 | 30.56766 | 103.94760 | 1653 ft | 3 kts | 330° |
| 2026-04-30 07:48 | 30.56751 | 103.94772 | 1653 ft | 3 kts | 310° |
| 2026-04-30 07:48 | 30.56744 | 103.94782 | 1653 ft | 0 kts | 298° |
| 2026-04-30 07:49 | 30.56748 | 103.94774 | 1653 ft | 3 kts | 298° |
| 2026-04-30 07:50 | 30.56775 | 103.94737 | 1653 ft | 9 kts | 309° |
| 2026-04-30 07:50 | 30.56801 | 103.94658 | 1653 ft | 9 kts | 259° |
| 2026-04-30 07:50 | 30.56744 | 103.94609 | 1653 ft | 13 kts | 205° |
| 2026-04-30 07:50 | 30.56640 | 103.94565 | 1653 ft | 18 kts | 203° |
| 2026-04-30 07:51 | 30.56507 | 103.94502 | 1653 ft | 23 kts | 202° |
| 2026-04-30 07:51 | 30.56345 | 103.94426 | 1653 ft | 27 kts | 202° |
| 2026-04-30 07:51 | 30.56241 | 103.94335 | 1653 ft | 14 kts | 274° |
| 2026-04-30 07:51 | 30.56281 | 103.94217 | 1654 ft | 18 kts | 292° |
| 2026-04-30 07:52 | 30.56333 | 103.94067 | 1653 ft | 22 kts | 294° |
| 2026-04-30 07:52 | 30.56451 | 103.94055 | 1670 ft | 20 kts | 24° |
| 2026-04-30 07:52 | 30.56673 | 103.94157 | 1664 ft | 65 kts | 21° |
| 2026-04-30 07:52 | 30.57311 | 103.94452 | 1651 ft | 131 kts | 21° |
| 2026-04-30 07:53 | 30.58294 | 103.94907 | 1999 ft | 151 kts | 21° |
| 2026-04-30 07:53 | 30.59278 | 103.95371 | 2726 ft | 159 kts | 23° |
| 2026-04-30 07:53 | 30.60358 | 103.95884 | 3206 ft | 176 kts | 23° |
| 2026-04-30 07:53 | 30.61573 | 103.96451 | 3525 ft | 202 kts | 22° |
| 2026-04-30 07:54 | 30.62946 | 103.97085 | 3821 ft | 229 kts | 22° |
| 2026-04-30 07:54 | 30.64544 | 103.97822 | 4191 ft | 257 kts | 22° |
| 2026-04-30 07:54 | 30.66234 | 103.98611 | 4969 ft | 266 kts | 22° |
| 2026-04-30 07:54 | 30.67770 | 103.99779 | 5796 ft | 271 kts | 49° |
| 2026-04-30 07:55 | 30.68866 | 104.01567 | 6711 ft | 274 kts | 59° |
| 2026-04-30 07:55 | 30.69874 | 104.03478 | 7611 ft | 279 kts | 59° |
| 2026-04-30 07:55 | 30.70904 | 104.05414 | 8569 ft | 284 kts | 59° |
| 2026-04-30 07:55 | 30.71960 | 104.07370 | 9552 ft | 288 kts | 58° |
| 2026-04-30 07:56 | 30.73040 | 104.09355 | 10387 ft | 296 kts | 58° |
| 2026-04-30 07:56 | 30.74161 | 104.11424 | 11051 ft | 309 kts | 59° |
| 2026-04-30 07:56 | 30.75109 | 104.13695 | 11785 ft | 316 kts | 72° |
| 2026-04-30 07:56 | 30.75578 | 104.16198 | 12596 ft | 320 kts | 85° |
| 2026-04-30 07:57 | 30.75787 | 104.18802 | 13375 ft | 327 kts | 87° |
| 2026-04-30 07:57 | 30.75964 | 104.21458 | 14099 ft | 333 kts | 88° |
| 2026-04-30 07:57 | 30.76149 | 104.24168 | 14813 ft | 338 kts | 87° |
| 2026-04-30 07:57 | 30.76342 | 104.26910 | 15561 ft | 342 kts | 87° |
| 2026-04-30 07:58 | 30.76542 | 104.29686 | 16322 ft | 346 kts | 87° |
| 2026-04-30 07:58 | 30.76746 | 104.32491 | 17072 ft | 351 kts | 87° |
| 2026-04-30 07:58 | 30.76953 | 104.35336 | 17823 ft | 355 kts | 86° |
| 2026-04-30 07:58 | 30.77162 | 104.38208 | 18529 ft | 359 kts | 86° |
| 2026-04-30 07:59 | 30.77374 | 104.41122 | 19161 ft | 364 kts | 86° |
| 2026-04-30 07:59 | 30.77587 | 104.44069 | 19761 ft | 369 kts | 86° |
| 2026-04-30 07:59 | 30.77804 | 104.47057 | 20402 ft | 373 kts | 86° |
| 2026-04-30 08:00 | 30.78242 | 104.53142 | 21660 ft | 383 kts | 86° |
| 2026-04-30 08:00 | 30.78464 | 104.56250 | 22288 ft | 388 kts | 86° |
| 2026-04-30 08:00 | 30.78612 | 104.58325 | 22706 ft | 391 kts | 86° |
| 2026-04-30 08:00 | 30.78838 | 104.61496 | 23347 ft | 396 kts | 86° |
| 2026-04-30 08:01 | 30.79066 | 104.64706 | 23906 ft | 401 kts | 86° |
| 2026-04-30 08:01 | 30.79371 | 104.69019 | 24598 ft | 407 kts | 86° |
| 2026-04-30 08:01 | 30.79603 | 104.72312 | 25138 ft | 411 kts | 85° |
| 2026-04-30 08:01 | 30.79837 | 104.75641 | 25659 ft | 415 kts | 85° |
| 2026-04-30 08:02 | 30.80309 | 104.82409 | 26677 ft | 424 kts | 85° |
| 2026-04-30 08:02 | 30.80470 | 104.84730 | 27021 ft | 427 kts | 85° |
| 2026-04-30 08:03 | 30.80951 | 104.91684 | 28002 ft | 436 kts | 85° |
| 2026-04-30 08:03 | 30.81436 | 104.98767 | 28997 ft | 444 kts | 85° |
| 2026-04-30 08:03 | 30.81682 | 105.02380 | 29493 ft | 448 kts | 85° |
| 2026-04-30 08:04 | 30.81928 | 105.06007 | 29971 ft | 452 kts | 85° |
| 2026-04-30 08:04 | 30.82174 | 105.09669 | 30371 ft | 456 kts | 84° |
| 2026-04-30 08:04 | 30.82422 | 105.13360 | 30754 ft | 460 kts | 84° |
| 2026-04-30 08:04 | 30.82672 | 105.17090 | 31129 ft | 464 kts | 84° |
| 2026-04-30 08:05 | 30.82922 | 105.20846 | 31499 ft | 468 kts | 84° |
| 2026-04-30 08:05 | 30.83174 | 105.24629 | 31875 ft | 471 kts | 84° |
| 2026-04-30 08:05 | 30.83427 | 105.28451 | 32244 ft | 475 kts | 84° |
| 2026-04-30 08:05 | 30.83676 | 105.32246 | 32597 ft | 478 kts | 84° |
| 2026-04-30 08:06 | 30.83929 | 105.36116 | 32962 ft | 481 kts | 84° |
| 2026-04-30 08:06 | 30.84190 | 105.40013 | 33317 ft | 484 kts | 83° |
| 2026-04-30 08:06 | 30.84702 | 105.43891 | 33658 ft | 486 kts | 76° |
| 2026-04-30 08:06 | 30.85434 | 105.47739 | 33993 ft | 489 kts | 74° |
| 2026-04-30 08:07 | 30.86252 | 105.51591 | 34283 ft | 492 kts | 73° |
| 2026-04-30 08:07 | 30.87106 | 105.55448 | 34615 ft | 493 kts | 72° |
| 2026-04-30 08:07 | 30.87968 | 105.59328 | 34942 ft | 495 kts | 73° |
| 2026-04-30 08:07 | 30.88824 | 105.63215 | 35247 ft | 498 kts | 73° |
| 2026-04-30 08:08 | 30.89674 | 105.67137 | 35553 ft | 500 kts | 73° |
| 2026-04-30 08:08 | 30.90518 | 105.71079 | 35843 ft | 502 kts | 73° |
| 2026-04-30 08:08 | 30.91356 | 105.75028 | 36132 ft | 504 kts | 73° |
| 2026-04-30 08:08 | 30.92195 | 105.79004 | 36435 ft | 506 kts | 73° |
| 2026-04-30 08:09 | 30.93035 | 105.82996 | 36743 ft | 508 kts | 73° |
| 2026-04-30 08:09 | 30.93827 | 105.86765 | 37021 ft | 510 kts | 73° |
| 2026-04-30 08:09 | 30.94662 | 105.90746 | 37295 ft | 511 kts | 73° |
| 2026-04-30 08:09 | 30.95506 | 105.94771 | 37561 ft | 513 kts | 73° |
| 2026-04-30 08:10 | 30.96337 | 105.98824 | 37796 ft | 516 kts | 75° |
| 2026-04-30 08:10 | 30.96855 | 106.02985 | 38056 ft | 520 kts | 82° |
| 2026-04-30 08:10 | 30.97187 | 106.07188 | 38316 ft | 522 kts | 83° |
| 2026-04-30 08:10 | 30.97462 | 106.11410 | 38564 ft | 524 kts | 84° |
| 2026-04-30 08:11 | 30.97708 | 106.15659 | 38769 ft | 526 kts | 84° |
| 2026-04-30 08:11 | 30.97944 | 106.19923 | 38959 ft | 528 kts | 84° |
| 2026-04-30 08:11 | 30.98178 | 106.24194 | 39134 ft | 530 kts | 84° |
| 2026-04-30 08:11 | 30.98416 | 106.28486 | 39314 ft | 531 kts | 84° |
| 2026-04-30 08:12 | 30.98656 | 106.32779 | 39491 ft | 533 kts | 84° |
| 2026-04-30 08:12 | 30.98900 | 106.37091 | 39665 ft | 534 kts | 84° |
| 2026-04-30 08:12 | 30.99145 | 106.41421 | 39822 ft | 536 kts | 84° |
| 2026-04-30 08:12 | 30.99390 | 106.45762 | 39990 ft | 537 kts | 84° |
| 2026-04-30 08:13 | 30.99636 | 106.50117 | 40156 ft | 539 kts | 84° |
| 2026-04-30 08:13 | 30.99879 | 106.54474 | 40307 ft | 540 kts | 84° |
| 2026-04-30 08:13 | 31.00123 | 106.58847 | 40453 ft | 542 kts | 84° |
| 2026-04-30 08:13 | 31.00362 | 106.63178 | 40575 ft | 543 kts | 84° |
| 2026-04-30 08:14 | 31.00603 | 106.67572 | 40704 ft | 545 kts | 84° |
| 2026-04-30 08:14 | 31.00843 | 106.71986 | 40820 ft | 546 kts | 84° |
| 2026-04-30 08:14 | 31.01083 | 106.76406 | 40923 ft | 547 kts | 84° |
| 2026-04-30 08:15 | 31.01558 | 106.85264 | 41086 ft | 547 kts | 85° |
| 2026-04-30 08:15 | 31.02020 | 106.94036 | 41098 ft | 538 kts | 85° |
| 2026-04-30 08:16 | 31.02475 | 107.02730 | 41096 ft | 537 kts | 85° |
| 2026-04-30 08:16 | 31.02924 | 107.11413 | 41091 ft | 537 kts | 85° |
| 2026-04-30 08:17 | 31.03367 | 107.20105 | 41096 ft | 537 kts | 85° |
| 2026-04-30 08:17 | 31.03804 | 107.28799 | 41093 ft | 537 kts | 85° |
| 2026-04-30 08:18 | 31.04235 | 107.37500 | 41094 ft | 538 kts | 85° |
| 2026-04-30 08:18 | 31.04654 | 107.46150 | 41090 ft | 538 kts | 85° |
| 2026-04-30 08:19 | 31.04943 | 107.54923 | 41089 ft | 538 kts | 87° |
| 2026-04-30 08:19 | 31.05092 | 107.63603 | 41091 ft | 539 kts | 88° |
| 2026-04-30 08:20 | 31.05226 | 107.72343 | 41092 ft | 539 kts | 87° |
| 2026-04-30 08:20 | 31.05374 | 107.81091 | 41091 ft | 540 kts | 87° |
| 2026-04-30 08:21 | 31.05529 | 107.89847 | 41092 ft | 540 kts | 87° |
| 2026-04-30 08:21 | 31.05683 | 107.98607 | 41087 ft | 540 kts | 87° |
| 2026-04-30 08:22 | 31.05832 | 108.07375 | 41085 ft | 541 kts | 87° |
| 2026-04-30 08:22 | 31.05974 | 108.16162 | 41085 ft | 542 kts | 87° |
| 2026-04-30 08:23 | 31.06111 | 108.24945 | 41090 ft | 542 kts | 87° |
| 2026-04-30 08:23 | 31.06242 | 108.33741 | 41080 ft | 545 kts | 87° |
| 2026-04-30 08:24 | 31.06368 | 108.42651 | 41079 ft | 553 kts | 87° |
| 2026-04-30 08:24 | 31.06490 | 108.51660 | 41076 ft | 557 kts | 87° |
| 2026-04-30 08:25 | 31.06604 | 108.60636 | 41083 ft | 558 kts | 87° |
| 2026-04-30 08:25 | 31.06713 | 108.69678 | 41083 ft | 558 kts | 87° |
| 2026-04-30 08:26 | 31.06815 | 108.78719 | 41082 ft | 558 kts | 87° |
| 2026-04-30 08:26 | 31.06911 | 108.87761 | 41089 ft | 558 kts | 87° |
| 2026-04-30 08:27 | 31.07002 | 108.96818 | 41086 ft | 559 kts | 87° |
| 2026-04-30 08:27 | 31.07086 | 109.05882 | 41093 ft | 559 kts | 87° |
| 2026-04-30 08:28 | 31.07164 | 109.14965 | 41096 ft | 560 kts | 87° |
| 2026-04-30 08:28 | 31.07236 | 109.24047 | 41098 ft | 560 kts | 87° |
| 2026-04-30 08:29 | 31.07302 | 109.33128 | 41100 ft | 561 kts | 87° |
| 2026-04-30 08:29 | 31.07362 | 109.42226 | 41096 ft | 560 kts | 87° |
| 2026-04-30 08:30 | 31.07412 | 109.51312 | 41096 ft | 560 kts | 87° |
| 2026-04-30 08:30 | 31.07458 | 109.60404 | 41098 ft | 561 kts | 87° |
| 2026-04-30 08:31 | 31.07330 | 109.69501 | 41108 ft | 563 kts | 95° |
| 2026-04-30 08:31 | 31.05515 | 109.78376 | 41107 ft | 563 kts | 107° |
| 2026-04-30 08:32 | 31.03088 | 109.87063 | 41110 ft | 564 kts | 109° |
| 2026-04-30 08:32 | 31.00586 | 109.95669 | 41110 ft | 564 kts | 108° |
| 2026-04-30 08:33 | 30.98084 | 110.04337 | 41112 ft | 565 kts | 108° |
| 2026-04-30 08:33 | 30.95597 | 110.13013 | 41112 ft | 565 kts | 108° |
| 2026-04-30 08:34 | 30.93104 | 110.21714 | 41113 ft | 567 kts | 108° |
| 2026-04-30 08:34 | 30.90603 | 110.30419 | 41114 ft | 567 kts | 108° |
| 2026-04-30 08:35 | 30.88095 | 110.39119 | 41117 ft | 567 kts | 108° |
| 2026-04-30 08:35 | 30.85580 | 110.47821 | 41120 ft | 567 kts | 108° |
| 2026-04-30 08:36 | 30.83061 | 110.56508 | 41119 ft | 566 kts | 108° |
| 2026-04-30 08:36 | 30.80538 | 110.65184 | 41118 ft | 566 kts | 108° |
| 2026-04-30 08:37 | 30.78008 | 110.73865 | 41125 ft | 568 kts | 108° |
| 2026-04-30 08:37 | 30.75460 | 110.82580 | 41121 ft | 568 kts | 108° |
| 2026-04-30 08:38 | 30.72908 | 110.91279 | 41123 ft | 569 kts | 108° |
| 2026-04-30 08:38 | 30.70351 | 110.99968 | 41135 ft | 569 kts | 108° |
| 2026-04-30 08:39 | 30.67781 | 111.08686 | 41136 ft | 570 kts | 108° |
| 2026-04-30 08:39 | 30.65225 | 111.17336 | 41134 ft | 570 kts | 108° |
| 2026-04-30 08:40 | 30.63190 | 111.26204 | 41136 ft | 567 kts | 94° |
| 2026-04-30 08:40 | 30.63082 | 111.30750 | 41136 ft | 561 kts | 82° |
| 2026-04-30 08:40 | 30.63484 | 111.35242 | 41134 ft | 559 kts | 78° |
| 2026-04-30 08:41 | 30.64635 | 111.44158 | 41134 ft | 558 kts | 76° |
| 2026-04-30 08:41 | 30.65478 | 111.53161 | 41132 ft | 563 kts | 81° |
| 2026-04-30 08:42 | 30.66010 | 111.62232 | 41132 ft | 564 kts | 82° |
| 2026-04-30 08:42 | 30.66467 | 111.71339 | 41134 ft | 565 kts | 83° |
| 2026-04-30 08:43 | 30.66909 | 111.80304 | 41142 ft | 565 kts | 83° |
| 2026-04-30 08:43 | 30.67361 | 111.89435 | 41136 ft | 566 kts | 82° |
| 2026-04-30 08:44 | 30.67815 | 111.98573 | 41143 ft | 567 kts | 82° |
| 2026-04-30 08:44 | 30.68411 | 112.07696 | 41138 ft | 567 kts | 81° |
| 2026-04-30 08:45 | 30.69082 | 112.16833 | 41142 ft | 568 kts | 81° |
| 2026-04-30 08:45 | 30.69727 | 112.25991 | 41142 ft | 569 kts | 81° |
| 2026-04-30 08:46 | 30.70344 | 112.35165 | 41152 ft | 570 kts | 81° |
| 2026-04-30 08:46 | 30.70948 | 112.44352 | 41152 ft | 571 kts | 81° |
| 2026-04-30 08:47 | 30.71546 | 112.53556 | 41150 ft | 571 kts | 81° |
| 2026-04-30 08:47 | 30.72140 | 112.62762 | 41154 ft | 572 kts | 81° |
| 2026-04-30 08:48 | 30.72730 | 112.71993 | 41159 ft | 573 kts | 81° |
| 2026-04-30 08:48 | 30.73313 | 112.81226 | 41162 ft | 573 kts | 81° |
| 2026-04-30 08:49 | 30.73887 | 112.90421 | 41161 ft | 574 kts | 81° |
| 2026-04-30 08:49 | 30.74458 | 112.99680 | 41165 ft | 575 kts | 81° |
| 2026-04-30 08:50 | 30.75023 | 113.08951 | 41166 ft | 575 kts | 81° |
| 2026-04-30 08:50 | 30.75557 | 113.18244 | 41169 ft | 577 kts | 83° |
| 2026-04-30 08:51 | 30.75805 | 113.27593 | 41171 ft | 579 kts | 84° |
| 2026-04-30 08:51 | 30.75964 | 113.36963 | 41171 ft | 579 kts | 84° |
| 2026-04-30 08:52 | 30.76123 | 113.44746 | 41171 ft | 580 kts | 84° |
| 2026-04-30 08:52 | 30.76343 | 113.54121 | 41174 ft | 580 kts | 84° |
| 2026-04-30 08:53 | 30.76569 | 113.63507 | 41174 ft | 581 kts | 84° |
| 2026-04-30 08:53 | 30.76781 | 113.72706 | 41175 ft | 582 kts | 84° |
| 2026-04-30 08:54 | 30.76989 | 113.82108 | 41174 ft | 582 kts | 84° |
| 2026-04-30 08:54 | 30.77179 | 113.90979 | 41174 ft | 583 kts | 84° |
| 2026-04-30 08:55 | 30.77373 | 114.00401 | 41173 ft | 583 kts | 84° |
| 2026-04-30 08:55 | 30.77651 | 114.09833 | 41178 ft | 583 kts | 82° |
| 2026-04-30 08:56 | 30.78306 | 114.19141 | 41177 ft | 575 kts | 72° |
| 2026-04-30 08:56 | 30.80632 | 114.27886 | 41181 ft | 563 kts | 62° |
| 2026-04-30 08:57 | 30.83412 | 114.36401 | 41177 ft | 563 kts | 61° |
| 2026-04-30 08:57 | 30.86189 | 114.44908 | 41185 ft | 563 kts | 62° |
| 2026-04-30 08:58 | 30.88964 | 114.53451 | 41185 ft | 564 kts | 61° |
| 2026-04-30 08:58 | 30.91736 | 114.61986 | 41193 ft | 564 kts | 62° |
| 2026-04-30 08:59 | 30.94506 | 114.70540 | 41191 ft | 564 kts | 62° |
| 2026-04-30 08:59 | 30.97266 | 114.79093 | 41197 ft | 565 kts | 62° |
| 2026-04-30 09:00 | 31.00023 | 114.87659 | 41188 ft | 565 kts | 62° |
| 2026-04-30 09:00 | 31.02775 | 114.96243 | 41194 ft | 566 kts | 62° |
| 2026-04-30 09:01 | 31.05510 | 115.04795 | 41199 ft | 566 kts | 62° |
| 2026-04-30 09:01 | 31.08261 | 115.13404 | 41193 ft | 566 kts | 62° |
| 2026-04-30 09:02 | 31.12379 | 115.26337 | 41201 ft | 568 kts | 62° |
| 2026-04-30 09:02 | 31.15127 | 115.34994 | 41205 ft | 567 kts | 62° |
| 2026-04-30 09:03 | 31.17923 | 115.43605 | 41198 ft | 567 kts | 62° |
| 2026-04-30 09:03 | 31.20725 | 115.52230 | 41202 ft | 568 kts | 62° |
| 2026-04-30 09:04 | 31.23514 | 115.60868 | 41196 ft | 569 kts | 62° |
| 2026-04-30 09:04 | 31.26295 | 115.69531 | 41189 ft | 569 kts | 62° |
| 2026-04-30 09:05 | 31.29060 | 115.78191 | 41183 ft | 568 kts | 62° |
| 2026-04-30 09:05 | 31.31826 | 115.86864 | 41193 ft | 570 kts | 63° |
| 2026-04-30 09:06 | 31.34604 | 115.95476 | 41188 ft | 570 kts | 62° |
| 2026-04-30 09:06 | 31.37443 | 116.04139 | 41190 ft | 570 kts | 62° |
| 2026-04-30 09:07 | 31.40275 | 116.12811 | 41187 ft | 571 kts | 62° |
| 2026-04-30 09:07 | 31.43091 | 116.21491 | 41185 ft | 571 kts | 62° |
| 2026-04-30 09:08 | 31.45905 | 116.30198 | 41179 ft | 571 kts | 62° |
| 2026-04-30 09:08 | 31.48711 | 116.38909 | 41180 ft | 571 kts | 63° |
| 2026-04-30 09:09 | 31.51510 | 116.47617 | 41184 ft | 571 kts | 63° |
| 2026-04-30 09:09 | 31.54303 | 116.56330 | 41192 ft | 571 kts | 63° |
| 2026-04-30 09:10 | 31.57088 | 116.65041 | 41189 ft | 571 kts | 63° |
| 2026-04-30 09:10 | 31.59866 | 116.73753 | 41190 ft | 570 kts | 63° |
| 2026-04-30 09:11 | 31.62620 | 116.82414 | 41189 ft | 570 kts | 63° |
| 2026-04-30 09:11 | 31.65381 | 116.91119 | 41194 ft | 570 kts | 63° |
| 2026-04-30 09:12 | 31.68141 | 116.99845 | 41192 ft | 569 kts | 63° |
| 2026-04-30 09:12 | 31.70871 | 117.08573 | 41193 ft | 569 kts | 64° |
| 2026-04-30 09:13 | 31.73562 | 117.17316 | 41185 ft | 569 kts | 64° |
| 2026-04-30 09:13 | 31.76177 | 117.26085 | 41187 ft | 572 kts | 69° |
| 2026-04-30 09:14 | 31.76979 | 117.30754 | 41190 ft | 579 kts | 80° |
| 2026-04-30 09:14 | 31.77113 | 117.35443 | 41199 ft | 583 kts | 89° |
| 2026-04-30 09:14 | 31.76628 | 117.44974 | 41195 ft | 585 kts | 92° |
| 2026-04-30 09:15 | 31.75899 | 117.54508 | 41194 ft | 586 kts | 93° |
| 2026-04-30 09:15 | 31.75169 | 117.64042 | 41196 ft | 586 kts | 93° |
| 2026-04-30 09:16 | 31.74478 | 117.73567 | 41193 ft | 585 kts | 93° |
| 2026-04-30 09:16 | 31.73801 | 117.83090 | 41198 ft | 585 kts | 93° |
| 2026-04-30 09:17 | 31.73116 | 117.92627 | 41197 ft | 585 kts | 93° |
| 2026-04-30 09:17 | 31.72421 | 118.02150 | 41195 ft | 585 kts | 93° |
| 2026-04-30 09:18 | 31.71718 | 118.11674 | 41191 ft | 585 kts | 93° |
| 2026-04-30 09:18 | 31.71040 | 118.21198 | 41188 ft | 585 kts | 93° |
| 2026-04-30 09:19 | 31.70393 | 118.30636 | 40828 ft | 579 kts | 93° |
| 2026-04-30 09:19 | 31.70066 | 118.35342 | 40175 ft | 578 kts | 93° |
| 2026-04-30 09:19 | 31.69736 | 118.40045 | 39487 ft | 579 kts | 93° |
| 2026-04-30 09:20 | 31.69402 | 118.44758 | 38813 ft | 580 kts | 93° |
| 2026-04-30 09:20 | 31.69064 | 118.49488 | 37982 ft | 580 kts | 93° |
| 2026-04-30 09:20 | 31.68725 | 118.54212 | 37085 ft | 583 kts | 93° |
| 2026-04-30 09:20 | 31.68382 | 118.58961 | 36179 ft | 586 kts | 93° |
| 2026-04-30 09:21 | 31.68035 | 118.63744 | 35275 ft | 589 kts | 93° |
| 2026-04-30 09:21 | 31.67681 | 118.68601 | 34359 ft | 593 kts | 93° |
| 2026-04-30 09:21 | 31.67329 | 118.73382 | 33321 ft | 596 kts | 93° |
| 2026-04-30 09:21 | 31.66969 | 118.78233 | 32340 ft | 598 kts | 93° |
| 2026-04-30 09:22 | 31.66605 | 118.83085 | 31445 ft | 597 kts | 93° |
| 2026-04-30 09:22 | 31.66241 | 118.87940 | 30566 ft | 596 kts | 93° |
| 2026-04-30 09:22 | 31.65876 | 118.92782 | 29635 ft | 594 kts | 93° |
| 2026-04-30 09:22 | 31.65512 | 118.97596 | 28823 ft | 589 kts | 92° |
| 2026-04-30 09:23 | 31.65154 | 119.02350 | 28177 ft | 581 kts | 92° |
| 2026-04-30 09:23 | 31.64809 | 119.07039 | 27567 ft | 573 kts | 92° |
| 2026-04-30 09:23 | 31.64534 | 119.11675 | 26941 ft | 566 kts | 90° |
| 2026-04-30 09:23 | 31.64311 | 119.16258 | 26321 ft | 559 kts | 90° |
| 2026-04-30 09:24 | 31.64123 | 119.20788 | 25711 ft | 553 kts | 89° |
| 2026-04-30 09:24 | 31.63951 | 119.25273 | 25109 ft | 547 kts | 89° |
| 2026-04-30 09:24 | 31.63782 | 119.29585 | 24517 ft | 541 kts | 89° |
| 2026-04-30 09:24 | 31.63596 | 119.34075 | 23906 ft | 536 kts | 89° |
| 2026-04-30 09:25 | 31.63407 | 119.38420 | 23233 ft | 530 kts | 89° |
| 2026-04-30 09:25 | 31.63215 | 119.42714 | 22597 ft | 523 kts | 89° |
| 2026-04-30 09:25 | 31.63018 | 119.46941 | 21998 ft | 515 kts | 90° |
| 2026-04-30 09:25 | 31.62817 | 119.51108 | 21397 ft | 508 kts | 90° |
| 2026-04-30 09:26 | 31.62617 | 119.55213 | 20845 ft | 500 kts | 90° |
| 2026-04-30 09:26 | 31.62420 | 119.59220 | 20567 ft | 486 kts | 90° |
| 2026-04-30 09:26 | 31.62226 | 119.63120 | 20325 ft | 472 kts | 90° |
| 2026-04-30 09:26 | 31.62037 | 119.66892 | 19998 ft | 451 kts | 90° |
| 2026-04-30 09:27 | 31.61847 | 119.70492 | 19273 ft | 433 kts | 90° |
| 2026-04-30 09:27 | 31.61639 | 119.73944 | 19148 ft | 426 kts | 90° |
| 2026-04-30 09:27 | 31.61423 | 119.77418 | 18890 ft | 428 kts | 90° |
| 2026-04-30 09:27 | 31.61204 | 119.80852 | 18267 ft | 413 kts | 90° |
| 2026-04-30 09:28 | 31.61141 | 119.84062 | 17876 ft | 388 kts | 79° |
| 2026-04-30 09:28 | 31.61780 | 119.87052 | 17779 ft | 373 kts | 58° |
| 2026-04-30 09:28 | 31.63200 | 119.89467 | 17779 ft | 350 kts | 34° |
| 2026-04-30 09:28 | 31.65147 | 119.91010 | 17787 ft | 331 kts | 17° |
| 2026-04-30 09:29 | 31.67242 | 119.92054 | 17776 ft | 325 kts | 11° |
| 2026-04-30 09:29 | 31.69385 | 119.92883 | 17775 ft | 323 kts | 8° |
| 2026-04-30 09:29 | 31.71535 | 119.93642 | 17775 ft | 326 kts | 9° |
| 2026-04-30 09:29 | 31.73691 | 119.94821 | 17764 ft | 363 kts | 24° |
| 2026-04-30 09:30 | 31.75575 | 119.96855 | 17765 ft | 368 kts | 47° |
| 2026-04-30 09:30 | 31.76648 | 119.99612 | 17783 ft | 378 kts | 71° |
| 2026-04-30 09:30 | 31.76747 | 120.02710 | 17779 ft | 386 kts | 96° |
| 2026-04-30 09:30 | 31.75898 | 120.05537 | 17774 ft | 389 kts | 121° |
| 2026-04-30 09:31 | 31.74250 | 120.08033 | 17771 ft | 387 kts | 134° |
| 2026-04-30 09:31 | 31.72464 | 120.10408 | 17771 ft | 389 kts | 132° |
| 2026-04-30 09:31 | 31.70749 | 120.12866 | 17715 ft | 389 kts | 130° |
| 2026-04-30 09:31 | 31.69093 | 120.15390 | 17277 ft | 391 kts | 128° |
| 2026-04-30 09:32 | 31.67485 | 120.17941 | 16935 ft | 386 kts | 127° |
| 2026-04-30 09:32 | 31.65920 | 120.20476 | 16575 ft | 381 kts | 127° |
| 2026-04-30 09:32 | 31.64382 | 120.22989 | 16169 ft | 378 kts | 127° |
| 2026-04-30 09:32 | 31.62861 | 120.25487 | 15856 ft | 374 kts | 127° |
| 2026-04-30 09:33 | 31.61353 | 120.27970 | 15776 ft | 374 kts | 127° |
| 2026-04-30 09:33 | 31.59853 | 120.30460 | 15768 ft | 374 kts | 126° |
| 2026-04-30 09:33 | 31.58601 | 120.33132 | 15777 ft | 374 kts | 112° |
| 2026-04-30 09:33 | 31.57695 | 120.35989 | 15766 ft | 374 kts | 108° |
| 2026-04-30 09:34 | 31.56852 | 120.38877 | 15723 ft | 375 kts | 108° |
| 2026-04-30 09:34 | 31.56007 | 120.41760 | 15419 ft | 374 kts | 108° |
| 2026-04-30 09:34 | 31.55159 | 120.44635 | 14973 ft | 372 kts | 108° |
| 2026-04-30 09:34 | 31.54313 | 120.47486 | 14608 ft | 368 kts | 108° |
| 2026-04-30 09:35 | 31.53478 | 120.50290 | 14280 ft | 363 kts | 109° |
| 2026-04-30 09:35 | 31.52647 | 120.53074 | 13938 ft | 360 kts | 109° |
| 2026-04-30 09:35 | 31.51822 | 120.55836 | 13593 ft | 357 kts | 109° |
| 2026-04-30 09:35 | 31.51003 | 120.58572 | 13262 ft | 355 kts | 109° |
| 2026-04-30 09:36 | 31.50188 | 120.61294 | 12941 ft | 353 kts | 109° |
| 2026-04-30 09:36 | 31.49378 | 120.63996 | 12624 ft | 351 kts | 109° |
| 2026-04-30 09:36 | 31.48572 | 120.66683 | 12377 ft | 348 kts | 109° |
| 2026-04-30 09:36 | 31.47771 | 120.69350 | 12166 ft | 343 kts | 109° |
| 2026-04-30 09:37 | 31.46987 | 120.71956 | 11846 ft | 337 kts | 109° |
| 2026-04-30 09:37 | 31.46214 | 120.74524 | 11525 ft | 332 kts | 109° |
| 2026-04-30 09:37 | 31.45452 | 120.77054 | 11219 ft | 328 kts | 108° |
| 2026-04-30 09:37 | 31.44697 | 120.79560 | 10938 ft | 324 kts | 108° |
| 2026-04-30 09:38 | 31.43951 | 120.82036 | 10630 ft | 322 kts | 108° |
| 2026-04-30 09:38 | 31.43206 | 120.84506 | 10329 ft | 320 kts | 108° |
| 2026-04-30 09:38 | 31.42464 | 120.86962 | 10005 ft | 319 kts | 108° |
| 2026-04-30 09:38 | 31.41723 | 120.89416 | 9541 ft | 319 kts | 108° |
| 2026-04-30 09:39 | 31.41002 | 120.91798 | 9213 ft | 314 kts | 108° |
| 2026-04-30 09:39 | 31.40278 | 120.94189 | 8912 ft | 309 kts | 108° |
| 2026-04-30 09:39 | 31.39572 | 120.96522 | 8707 ft | 307 kts | 108° |
| 2026-04-30 09:39 | 31.38859 | 120.98867 | 8541 ft | 306 kts | 108° |
| 2026-04-30 09:40 | 31.38148 | 121.01204 | 8371 ft | 304 kts | 108° |
| 2026-04-30 09:40 | 31.37441 | 121.03527 | 8199 ft | 302 kts | 108° |
| 2026-04-30 09:40 | 31.36738 | 121.05835 | 8033 ft | 300 kts | 108° |
| 2026-04-30 09:40 | 31.36354 | 121.07096 | 7924 ft | 299 kts | 108° |
| 2026-04-30 09:41 | 31.35888 | 121.08624 | 7812 ft | 298 kts | 108° |
| 2026-04-30 09:42 | 31.35378 | 121.10295 | 7684 ft | 297 kts | 108° |
| 2026-04-30 09:42 | 31.34686 | 121.12566 | 7517 ft | 295 kts | 108° |
| 2026-04-30 09:42 | 31.33987 | 121.14819 | 7354 ft | 294 kts | 108° |
| 2026-04-30 09:42 | 31.33525 | 121.16302 | 7232 ft | 293 kts | 108° |
| 2026-04-30 09:43 | 31.33287 | 121.17066 | 7175 ft | 292 kts | 108° |
| 2026-04-30 09:43 | 31.33238 | 121.17220 | 7165 ft | 292 kts | 108° |
| 2026-04-30 09:43 | 31.32519 | 121.19413 | 6994 ft | 292 kts | 113° |
| 2026-04-30 09:43 | 31.31347 | 121.21201 | 6823 ft | 292 kts | 141° |
| 2026-04-30 09:44 | 31.29790 | 121.22137 | 6694 ft | 290 kts | 166° |
| 2026-04-30 09:44 | 31.27797 | 121.22422 | 6523 ft | 288 kts | 179° |
| 2026-04-30 09:44 | 31.25795 | 121.22495 | 6350 ft | 288 kts | 180° |
| 2026-04-30 09:44 | 31.23798 | 121.22570 | 6174 ft | 286 kts | 179° |
| 2026-04-30 09:45 | 31.21814 | 121.22661 | 6014 ft | 285 kts | 178° |
| 2026-04-30 09:45 | 31.19834 | 121.22764 | 5905 ft | 284 kts | 178° |
| 2026-04-30 09:45 | 31.17860 | 121.22870 | 5658 ft | 283 kts | 178° |
| 2026-04-30 09:45 | 31.15905 | 121.22973 | 5416 ft | 281 kts | 178° |
| 2026-04-30 09:46 | 31.13958 | 121.23076 | 5200 ft | 279 kts | 178° |
| 2026-04-30 09:46 | 31.12036 | 121.23180 | 5037 ft | 272 kts | 178° |
| 2026-04-30 09:46 | 31.10186 | 121.23282 | 4905 ft | 261 kts | 178° |
| 2026-04-30 09:46 | 31.08409 | 121.23379 | 4781 ft | 250 kts | 178° |
| 2026-04-30 09:47 | 31.06703 | 121.23473 | 4631 ft | 242 kts | 178° |
| 2026-04-30 09:47 | 31.05038 | 121.23565 | 4390 ft | 238 kts | 178° |
| 2026-04-30 09:47 | 31.03398 | 121.23731 | 4136 ft | 235 kts | 168° |
| 2026-04-30 09:47 | 31.01984 | 121.24589 | 3919 ft | 229 kts | 133° |
| 2026-04-30 09:48 | 31.01329 | 121.25909 | 3804 ft | 218 kts | 103° |
| 2026-04-30 09:48 | 31.01224 | 121.27612 | 3714 ft | 206 kts | 85° |
| 2026-04-30 09:48 | 31.01309 | 121.29244 | 3588 ft | 198 kts | 84° |
| 2026-04-30 09:48 | 31.01397 | 121.30824 | 3378 ft | 194 kts | 84° |
| 2026-04-30 09:49 | 31.01506 | 121.32388 | 3144 ft | 194 kts | 79° |
| 2026-04-30 09:49 | 31.02037 | 121.33814 | 2802 ft | 194 kts | 45° |
| 2026-04-30 09:49 | 31.03165 | 121.34509 | 2578 ft | 183 kts | 7° |
| 2026-04-30 09:49 | 31.04420 | 121.34533 | 2368 ft | 177 kts | 356° |
| 2026-04-30 09:50 | 31.05614 | 121.34437 | 2239 ft | 167 kts | 353° |
| 2026-04-30 09:50 | 31.06689 | 121.34326 | 2063 ft | 157 kts | 356° |
| 2026-04-30 09:50 | 31.07771 | 121.34293 | 1829 ft | 155 kts | 357° |
| 2026-04-30 09:50 | 31.08846 | 121.34240 | 1794 ft | 157 kts | 356° |
| 2026-04-30 09:51 | 31.09940 | 121.34171 | 1680 ft | 156 kts | 356° |
| 2026-04-30 09:51 | 31.10997 | 121.34104 | 1462 ft | 148 kts | 356° |
| 2026-04-30 09:51 | 31.11981 | 121.34050 | 1273 ft | 138 kts | 356° |
| 2026-04-30 09:51 | 31.12900 | 121.34002 | 1093 ft | 128 kts | 356° |
| 2026-04-30 09:52 | 31.13788 | 121.33955 | 931 ft | 126 kts | 356° |
| 2026-04-30 09:52 | 31.14551 | 121.33912 | 785 ft | 126 kts | 357° |
| 2026-04-30 09:52 | 31.15433 | 121.33863 | 625 ft | 127 kts | 357° |
| 2026-04-30 09:52 | 31.16319 | 121.33816 | 449 ft | 128 kts | 358° |
| 2026-04-30 09:53 | 31.17195 | 121.33772 | 277 ft | 128 kts | 357° |
| 2026-04-30 09:53 | 31.18049 | 121.33728 | 113 ft | 127 kts | 356° |
| 2026-04-30 09:53 | 31.18834 | 121.33685 | 26 ft | 125 kts | 356° |
| 2026-04-30 09:53 | 31.19553 | 121.33640 | 27 ft | 81 kts | 356° |
| 2026-04-30 09:54 | 31.19963 | 121.33617 | 27 ft | 37 kts | 358° |
| 2026-04-30 09:54 | 31.20166 | 121.33602 | 27 ft | 29 kts | 351° |
| 2026-04-30 09:54 | 31.20356 | 121.33519 | 30 ft | 30 kts | 330° |
| 2026-04-30 09:54 | 31.20544 | 121.33402 | 26 ft | 31 kts | 348° |
| 2026-04-30 09:55 | 31.20761 | 121.33388 | 28 ft | 29 kts | 357° |
| 2026-04-30 09:55 | 31.20970 | 121.33376 | 28 ft | 31 kts | 357° |
| 2026-04-30 09:55 | 31.21113 | 121.33369 | 28 ft | 8 kts | 357° |
| 2026-04-30 09:55 | 31.21158 | 121.33332 | 28 ft | 9 kts | 293° |
| 2026-04-30 09:56 | 31.21161 | 121.33300 | 28 ft | 0 kts | 270° |
| 2026-04-30 09:56 | 31.21161 | 121.33276 | 24 ft | 6 kts | 270° |
| 2026-04-30 09:56 | 31.21160 | 121.33195 | 24 ft | 13 kts | 267° |
| 2026-04-30 09:56 | 31.21154 | 121.33069 | 24 ft | 18 kts | 267° |
| 2026-04-30 09:57 | 31.21110 | 121.32991 | 29 ft | 11 kts | 194° |
| 2026-04-30 09:57 | 31.21014 | 121.32989 | 27 ft | 16 kts | 178° |
| 2026-04-30 09:57 | 31.20885 | 121.32996 | 28 ft | 21 kts | 177° |
| 2026-04-30 09:57 | 31.20732 | 121.33005 | 27 ft | 23 kts | 177° |
| 2026-04-30 09:58 | 31.20560 | 121.33013 | 29 ft | 26 kts | 177° |
| 2026-04-30 09:58 | 31.20376 | 121.33024 | 29 ft | 28 kts | 177° |
| 2026-04-30 09:58 | 31.20178 | 121.33036 | 29 ft | 29 kts | 177° |
| 2026-04-30 09:58 | 31.19971 | 121.33047 | 28 ft | 31 kts | 177° |
| 2026-04-30 09:59 | 31.19672 | 121.33039 | 26 ft | 14 kts | 227° |
| 2026-04-30 09:59 | 31.19649 | 121.32796 | 25 ft | 18 kts | 268° |
| 2026-04-30 10:00 | 31.19670 | 121.32559 | 29 ft | 10 kts | 268° |
| 2026-04-30 10:00 | 31.19670 | 121.32542 | 29 ft | 0 kts | 268° |